Time;durP1;ratioP1;P1;durP2;ratioP2;P2;SDS_P1;SDS_P2;PMS_P1;PMS_P2;Temp;Humidity;BMP_temperature;BMP_pressure;BME280_temperature;BME280_humidity;BME280_pressure;Samples;Min_cycle;Max_cycle;Signal;HPM_P1;HPM_P2
2023/03/13 00:01:24;;;;;;;4.13;0.57;;;13.00;99.90;;;13.15;52.83;100119.28;4957478;28;97727;-48
2023/03/13 00:03:50;;;;;;;3.20;0.97;;;13.10;99.90;;;13.19;52.06;100116.44;4961314;28;97646;-55
2023/03/13 00:06:17;;;;;;;2.03;0.77;;;13.10;99.90;;;13.21;51.54;100116.34;4961064;28;97270;-48
2023/03/13 00:08:43;;;;;;;1.23;0.70;;;13.10;99.90;;;13.20;51.33;100106.72;4956101;28;98573;-46
2023/03/13 00:11:12;;;;;;;1.97;0.67;;;13.20;99.90;;;13.26;51.70;100099.25;4954962;28;98909;-45
2023/03/13 00:13:38;;;;;;;2.73;1.27;;;13.20;99.90;;;13.29;50.83;100085.84;4958313;28;97379;-52
2023/03/13 00:16:11;;;;;;;2.40;0.73;;;13.30;99.90;;;13.37;51.87;100078.34;4954772;28;97968;-49
2023/03/13 00:18:37;;;;;;;4.50;0.93;;;13.40;99.90;;;13.42;52.24;100074.56;4957633;28;98075;-46
2023/03/13 00:21:07;;;;;;;3.53;1.07;;;13.40;99.90;;;13.47;53.27;100064.59;4955043;28;98549;-46
2023/03/13 00:23:35;;;;;;;0.50;0.40;;;13.50;99.90;;;13.50;49.70;100059.94;4957317;28;97839;-49
2023/03/13 00:26:04;;;;;;;3.50;0.87;;;13.50;99.90;;;13.56;50.45;100050.78;4954524;28;98114;-49
2023/03/13 00:28:32;;;;;;;2.57;0.70;;;13.60;99.90;;;13.56;52.87;100040.19;4961635;28;97591;-50
2023/03/13 00:31:03;;;;;;;5.20;0.63;;;13.60;99.90;;;13.62;49.41;100034.56;4954771;28;97523;-49
2023/03/13 00:33:41;;;;;;;1.97;0.70;;;13.60;99.90;;;13.61;50.96;100023.09;4957939;28;97973;-46
2023/03/13 00:36:19;;;;;;;3.33;0.80;;;13.60;99.90;;;13.65;50.93;100019.31;4951642;28;97187;-46
2023/03/13 00:38:45;;;;;;;3.53;0.93;;;13.60;99.90;;;13.63;50.07;100020.34;4959897;28;100612;-44
2023/03/13 00:41:15;;;;;;;8.10;0.80;;;13.60;99.90;;;13.66;54.14;100020.19;4956439;28;105694;-46
2023/03/13 00:43:43;;;;;;;3.10;1.00;;;13.70;99.90;;;13.64;50.61;100027.38;4957947;28;97261;-47
2023/03/13 00:46:09;;;;;;;1.40;0.80;;;13.60;99.90;;;13.65;53.56;100018.47;4936782;28;97670;-44
2023/03/13 00:48:36;;;;;;;7.83;1.07;;;13.70;99.90;;;13.59;53.87;100003.75;4958624;28;97794;-46
2023/03/13 00:51:03;;;;;;;1.30;0.37;;;13.60;99.90;;;13.60;52.04;99996.69;4955971;28;97512;-45
2023/03/13 00:53:29;;;;;;;6.83;1.07;;;13.60;99.90;;;13.53;57.52;99988.22;4961180;28;97298;-46
2023/03/13 00:56:11;;;;;;;3.80;0.70;;;13.50;99.90;;;13.56;52.48;99992.50;4953910;28;97632;-46
2023/03/13 00:58:40;;;;;;;3.20;0.70;;;13.50;99.90;;;13.48;56.02;99992.09;4957988;28;100463;-47
2023/03/13 01:01:07;;;;;;;4.57;1.53;;;13.50;99.90;;;13.50;56.78;99987.56;4956405;28;97443;-49
2023/03/13 01:03:34;;;;;;;3.77;0.80;;;13.50;99.90;;;13.47;57.58;99987.75;4962544;28;97476;-46
2023/03/13 01:06:02;;;;;;;5.67;1.07;;;13.50;99.90;;;13.42;60.14;99989.78;4937405;28;97470;-45
2023/03/13 01:08:29;;;;;;;4.00;0.63;;;13.40;99.90;;;13.40;59.44;99982.78;4960656;28;98189;-46
2023/03/13 01:11:26;;;;;;;2.67;0.40;;;13.40;99.90;;;13.40;54.47;99984.59;4941359;28;101100;-50
2023/03/13 01:14:01;;;;;;;2.80;0.57;;;13.40;99.90;;;13.37;59.09;99976.81;4959886;28;98390;-48
2023/03/13 01:16:30;;;;;;;1.07;0.77;;;13.30;99.90;;;13.39;51.94;99969.63;4968210;28;97541;-45
2023/03/13 01:19:01;;;;;;;2.27;0.63;;;13.40;99.90;;;13.48;54.96;99966.47;4975065;28;97409;-45
2023/03/13 01:21:28;;;;;;;3.87;0.83;;;13.50;99.90;;;13.47;57.32;99966.56;4993348;28;97588;-47
2023/03/13 01:23:54;;;;;;;9.27;1.03;;;13.50;99.90;;;13.43;58.79;99965.00;4991336;28;96745;-49
2023/03/13 01:26:21;;;;;;;3.00;0.83;;;13.40;99.90;;;13.43;56.05;99955.25;4993826;28;97703;-48
2023/03/13 01:28:47;;;;;;;2.90;0.80;;;13.40;99.90;;;13.38;54.74;99950.25;4993044;28;98203;-45
2023/03/13 01:31:23;;;;;;;3.23;1.30;;;13.30;99.90;;;13.37;57.88;99948.53;4989304;28;112804;-48
2023/03/13 01:33:54;;;;;;;3.33;1.20;;;13.30;99.90;;;13.32;60.37;99950.63;4993867;28;96944;-46
2023/03/13 01:36:20;;;;;;;4.23;0.90;;;13.20;99.90;;;13.30;59.76;99944.53;4988523;28;97358;-48
2023/03/13 01:38:52;;;;;;;2.53;0.90;;;13.30;99.90;;;13.27;58.21;99934.13;4992455;28;97886;-48
2023/03/13 01:41:19;;;;;;;3.33;0.67;;;13.30;99.90;;;13.30;55.82;99933.94;4990328;28;101212;-46
2023/03/13 01:43:46;;;;;;;1.43;0.80;;;13.30;99.90;;;13.34;52.95;99927.53;4994225;28;97218;-47
2023/03/13 01:46:30;;;;;;;6.57;1.13;;;13.40;99.90;;;13.37;58.78;99914.09;4970838;28;97343;-45
2023/03/13 01:49:19;;;;;;;7.20;1.00;;;13.40;99.90;;;13.41;54.77;99909.47;4986387;28;98791;-47
2023/03/13 01:52:23;;;;;;;1.60;0.60;;;13.40;99.90;;;13.39;59.58;99906.06;4974333;28;98233;-49
2023/03/13 01:55:11;;;;;;;2.47;0.80;;;13.40;99.90;;;13.36;52.86;99900.97;4991536;28;97529;-50
2023/03/13 01:57:43;;;;;;;2.40;0.80;;;13.30;99.90;;;13.34;52.93;99887.81;4990824;28;97450;-46
2023/03/13 02:00:15;;;;;;;5.10;0.70;;;13.30;99.90;;;13.32;57.29;99878.25;4971019;28;97122;-48
2023/03/13 02:02:50;;;;;;;2.30;0.93;;;13.30;99.90;;;13.28;60.29;99872.25;4991596;28;97435;-49
2023/03/13 02:05:19;;;;;;;6.27;1.10;;;13.20;99.90;;;13.26;54.98;99863.56;4972159;28;97226;-49
2023/03/13 02:07:53;;;;;;;3.23;0.47;;;13.30;99.90;;;13.26;54.05;99852.97;4993455;28;97122;-46
2023/03/13 02:10:21;;;;;;;3.77;1.00;;;13.20;99.90;;;13.24;57.59;99852.19;4971678;28;103058;-45
2023/03/13 02:12:48;;;;;;;4.27;0.70;;;13.20;99.90;;;13.26;56.64;99847.66;4992236;28;97235;-45
2023/03/13 02:15:21;;;;;;;7.83;2.07;;;13.20;99.90;;;13.34;58.29;99845.44;4970282;28;97362;-45
2023/03/13 02:17:48;;;;;;;10.40;1.53;;;13.30;99.90;;;13.31;59.03;99824.44;4973668;28;96901;-47
2023/03/13 02:20:20;;;;;;;5.80;0.80;;;13.30;99.90;;;13.27;60.92;99828.19;4972193;28;103463;-48
2023/03/13 02:22:54;;;;;;;3.40;0.77;;;13.30;99.90;;;13.24;59.03;99822.22;4977079;28;97639;-47
2023/03/13 02:25:23;;;;;;;5.30;0.53;;;13.30;99.90;;;13.28;57.58;99803.41;4972993;28;97183;-50
2023/03/13 02:28:04;;;;;;;1.70;0.40;;;13.30;99.90;;;13.26;62.21;99807.94;4994180;28;100475;-45
2023/03/13 02:30:30;;;;;;;0.53;0.43;;;13.40;99.90;;;13.28;63.61;99811.34;4991747;28;102143;-43
2023/03/13 02:32:56;;;;;;;3.23;0.50;;;13.40;99.90;;;13.33;63.42;99796.06;4987925;28;101228;-44
2023/03/13 02:35:23;;;;;;;0.50;0.50;;;13.50;99.90;;;13.32;63.93;99799.66;4995194;28;100044;-43
2023/03/13 02:38:01;;;;;;;0.40;0.23;;;13.40;99.90;;;13.37;63.21;99794.91;4959346;28;101154;-48
2023/03/13 02:40:36;;;;;;;0.43;0.40;;;13.50;99.90;;;13.36;63.50;99798.50;4990778;28;102111;-46
2023/03/13 02:43:08;;;;;;;0.60;0.30;;;13.50;99.90;;;13.36;64.78;99800.31;4970119;28;97444;-44
2023/03/13 02:45:34;;;;;;;0.97;0.43;;;13.50;99.90;;;13.32;65.02;99804.09;4994566;28;96882;-48
2023/03/13 02:48:00;;;;;;;6.97;0.70;;;13.40;99.90;;;13.38;61.95;99806.34;4988544;28;107644;-45
2023/03/13 02:50:25;;;;;;;1.97;0.30;;;13.50;99.90;;;13.40;60.68;99797.38;4991396;28;101654;-45
2023/03/13 02:53:02;;;;;;;0.10;0.10;;;13.50;99.90;;;13.36;66.72;99801.16;4991326;28;96880;-47
2023/03/13 02:55:41;;;;;;;2.57;0.50;;;13.50;99.90;;;13.38;63.44;99791.31;4976022;28;97371;-47
2023/03/13 02:58:07;;;;;;;2.73;0.40;;;13.50;99.90;;;13.31;67.43;99791.78;4970780;28;99234;-48
2023/03/13 03:00:34;;;;;;;1.30;0.37;;;13.40;99.90;;;13.26;66.17;99792.06;4993271;28;96948;-46
2023/03/13 03:03:00;;;;;;;0.10;0.10;;;13.40;99.90;;;13.27;66.04;99783.16;4987499;28;99429;-46
2023/03/13 03:05:26;;;;;;;0.57;0.20;;;13.30;99.90;;;13.22;64.78;99772.00;4973793;28;96783;-45
2023/03/13 03:07:51;;;;;;;2.67;0.37;;;13.30;99.90;;;13.22;67.00;99772.00;4988387;28;100333;-44
2023/03/13 03:10:18;;;;;;;2.83;0.60;;;13.30;99.90;;;13.20;66.96;99765.97;4992458;28;112664;-47
2023/03/13 03:12:43;;;;;;;0.73;0.60;;;13.30;99.90;;;13.22;67.47;99757.91;4993120;28;97480;-45
2023/03/13 03:15:10;;;;;;;2.40;0.30;;;13.30;99.90;;;13.24;64.80;99748.94;4989142;28;104178;-49
2023/03/13 03:17:36;;;;;;;1.70;0.23;;;13.30;99.90;;;13.19;67.15;99745.72;4991382;28;97000;-46
2023/03/13 03:20:06;;;;;;;0.50;0.10;;;13.30;99.90;;;13.17;68.37;99752.03;4985983;28;98738;-47
2023/03/13 03:22:33;;;;;;;2.87;0.40;;;13.30;99.90;;;13.16;65.47;99731.75;4991122;28;97205;-47
2023/03/13 03:24:59;;;;;;;0.10;0.10;;;13.30;99.90;;;13.19;66.78;99729.81;4990180;28;96980;-49
2023/03/13 03:27:25;;;;;;;0.17;0.13;;;13.30;99.90;;;13.17;66.45;99744.94;4992710;28;97971;-49
2023/03/13 03:29:50;;;;;;;0.53;0.20;;;13.30;99.90;;;13.26;63.80;99741.75;4989553;28;97114;-49
2023/03/13 03:32:16;;;;;;;0.33;0.10;;;13.30;99.90;;;13.20;68.24;99747.41;4988039;28;97158;-45
2023/03/13 03:34:42;;;;;;;3.30;0.20;;;13.30;99.90;;;13.24;67.06;99740.97;4993986;28;96592;-51
2023/03/13 03:37:08;;;;;;;2.43;0.47;;;13.40;99.90;;;13.26;64.90;99747.03;4988340;28;115387;-52
2023/03/13 03:39:35;;;;;;;0.40;0.20;;;13.40;99.90;;;13.30;64.65;99752.97;4988489;28;98371;-46
2023/03/13 03:42:01;;;;;;;1.43;0.30;;;13.40;99.90;;;13.35;62.41;99737.69;4991340;28;97224;-45
2023/03/13 03:44:27;;;;;;;1.83;0.47;;;13.40;99.90;;;13.40;66.41;99727.66;4991431;28;97559;-47
2023/03/13 03:46:53;;;;;;;0.10;0.10;;;13.50;99.90;;;13.33;60.87;99735.13;4987645;28;110042;-49
2023/03/13 03:49:19;;;;;;;2.63;0.60;;;13.40;99.90;;;13.40;62.75;99727.66;4991170;28;127482;-44
2023/03/13 03:51:44;;;;;;;0.97;0.30;;;13.50;99.90;;;13.44;65.86;99723.00;4990415;28;96765;-46
2023/03/13 03:54:10;;;;;;;0.20;0.20;;;13.60;99.90;;;13.53;61.92;99717.16;4992445;28;97245;-45
2023/03/13 03:56:36;;;;;;;3.30;0.10;;;13.60;99.90;;;13.63;56.33;99718.28;4991058;28;97465;-46
2023/03/13 03:59:01;;;;;;;0.67;0.30;;;13.70;99.90;;;13.65;64.42;99726.97;4986082;28;115848;-50
2023/03/13 04:01:27;;;;;;;0.40;0.17;;;13.80;99.90;;;13.61;58.78;99723.69;4990454;28;118129;-46
2023/03/13 04:03:53;;;;;;;0.50;0.07;;;13.70;99.90;;;13.59;59.43;99716.75;4985152;28;97436;-47
2023/03/13 04:06:19;;;;;;;1.67;0.47;;;13.70;99.90;;;13.63;60.08;99718.28;4985194;28;97495;-50
2023/03/13 04:08:44;;;;;;;1.40;0.40;;;13.70;99.90;;;13.66;64.62;99712.78;4990262;28;96866;-49
2023/03/13 04:11:10;;;;;;;0.10;0.10;;;13.80;99.90;;;13.68;63.65;99716.19;4986844;28;97309;-46
2023/03/13 04:13:36;;;;;;;1.03;0.30;;;13.80;99.90;;;13.67;65.99;99725.09;4988211;28;97549;-47
2023/03/13 04:16:08;;;;;;;0.13;0.10;;;13.80;99.90;;;13.69;65.41;99716.06;4988917;28;96989;-48
2023/03/13 04:18:34;;;;;;;0.43;0.20;;;13.80;99.90;;;13.68;66.19;99705.59;4988148;28;97287;-49
2023/03/13 04:21:02;;;;;;;0.00;0.00;;;13.80;99.90;;;13.70;66.20;99719.56;4987118;28;102621;-48
2023/03/13 04:23:28;;;;;;;0.00;0.00;;;13.80;99.90;;;13.72;65.44;99699.13;4989630;28;97347;-48
2023/03/13 04:25:54;;;;;;;0.00;0.00;;;13.80;99.90;;;13.69;65.50;99692.22;4989723;28;97520;-44
2023/03/13 04:28:19;;;;;;;0.20;0.10;;;13.80;99.90;;;13.74;63.05;99688.44;4990598;28;98048;-45
2023/03/13 04:30:45;;;;;;;0.10;0.10;;;13.80;99.90;;;13.73;65.17;99687.56;4992721;28;97181;-47
2023/03/13 04:33:11;;;;;;;0.00;0.00;;;13.80;99.90;;;13.72;67.12;99691.19;4988066;28;97070;-49
2023/03/13 04:35:37;;;;;;;0.20;0.10;;;13.80;99.90;;;13.73;67.15;99682.28;4993448;28;97158;-48
2023/03/13 04:38:02;;;;;;;0.00;0.00;;;13.90;99.90;;;13.75;66.74;99680.41;4986640;28;103434;-45
2023/03/13 04:40:28;;;;;;;0.30;0.20;;;13.80;99.90;;;13.76;61.93;99676.81;4993460;28;97031;-46
2023/03/13 04:42:54;;;;;;;0.10;0.10;;;13.90;99.90;;;13.78;65.88;99680.19;4989338;28;102462;-48
2023/03/13 04:45:20;;;;;;;0.10;0.10;;;13.90;99.90;;;13.79;66.20;99676.59;4993078;28;96866;-48
2023/03/13 04:47:46;;;;;;;0.53;0.13;;;13.90;99.90;;;13.82;66.19;99676.41;4993247;28;97186;-44
2023/03/13 04:50:12;;;;;;;0.10;0.10;;;13.90;99.90;;;13.81;65.57;99672.03;4993459;28;97229;-48
2023/03/13 04:52:38;;;;;;;0.30;0.10;;;13.90;99.90;;;13.84;67.11;99673.66;4995664;28;96809;-47
2023/03/13 04:55:04;;;;;;;0.50;0.10;;;14.00;99.90;;;13.83;68.30;99672.78;4995118;28;96927;-46
2023/03/13 04:57:30;;;;;;;2.60;0.53;;;14.00;99.90;;;13.87;66.82;99669.00;4983383;28;98738;-47
2023/03/13 04:59:56;;;;;;;0.10;0.10;;;14.00;99.90;;;13.88;67.70;99665.38;4993758;28;98146;-45
2023/03/13 05:02:21;;;;;;;0.20;0.20;;;14.00;99.90;;;13.89;67.21;99656.50;4993551;28;97126;-43
2023/03/13 05:04:47;;;;;;;0.30;0.20;;;14.00;99.90;;;13.90;61.41;99657.38;4985226;28;97510;-46
2023/03/13 05:07:13;;;;;;;0.10;0.10;;;14.00;99.90;;;13.90;68.07;99658.22;4984416;28;115183;-45
2023/03/13 05:09:39;;;;;;;0.10;0.00;;;14.00;99.90;;;13.90;66.57;99657.38;4984865;28;98144;-45
2023/03/13 05:12:05;;;;;;;0.33;0.00;;;14.00;99.90;;;13.94;66.77;99651.75;4987644;28;97212;-47
2023/03/13 05:14:31;;;;;;;0.00;0.00;;;14.10;99.90;;;13.94;63.59;99650.91;4988300;28;97503;-48
2023/03/13 05:16:56;;;;;;;0.00;0.00;;;14.10;99.90;;;13.98;67.04;99647.94;4987510;28;97603;-45
2023/03/13 05:19:22;;;;;;;0.00;0.00;;;14.10;99.90;;;13.99;67.13;99644.34;4992353;28;97093;-49
2023/03/13 05:21:48;;;;;;;0.10;0.10;;;14.10;99.90;;;14.02;67.70;99639.78;4972977;28;97283;-46
2023/03/13 05:24:14;;;;;;;0.20;0.20;;;14.20;99.90;;;14.00;65.07;99638.09;4988681;28;97290;-48
2023/03/13 05:26:39;;;;;;;0.00;0.00;;;14.20;99.90;;;14.00;67.84;99638.09;4989956;28;98523;-46
2023/03/13 05:29:05;;;;;;;0.00;0.00;;;14.20;99.90;;;14.03;67.37;99637.03;4987367;28;113883;-47
2023/03/13 05:31:31;;;;;;;0.40;0.10;;;14.20;99.90;;;14.06;66.76;99641.28;4987184;28;97342;-48
2023/03/13 05:33:57;;;;;;;0.57;0.10;;;14.20;99.90;;;14.08;65.91;99640.25;4991697;28;97283;-46
2023/03/13 05:36:23;;;;;;;0.57;0.10;;;14.30;99.90;;;14.10;64.83;99638.34;4990501;28;104672;-44
2023/03/13 05:38:48;;;;;;;0.00;0.00;;;14.30;99.90;;;14.14;64.13;99638.97;4994044;28;97035;-43
2023/03/13 05:41:14;;;;;;;0.73;0.00;;;14.30;99.90;;;14.16;67.47;99642.38;4984159;28;97087;-49
2023/03/13 05:43:40;;;;;;;0.10;0.10;;;14.30;99.90;;;14.15;67.17;99636.22;4989723;28;102247;-46
2023/03/13 05:46:06;;;;;;;0.17;0.10;;;14.30;99.90;;;14.18;64.03;99630.72;4988669;28;96752;-43
2023/03/13 05:48:31;;;;;;;0.10;0.00;;;14.30;99.90;;;14.20;67.61;99617.38;4989873;28;97344;-44
2023/03/13 05:50:57;;;;;;;0.10;0.10;;;14.40;99.90;;;14.24;67.06;99605.59;4989804;28;96898;-45
2023/03/13 05:53:23;;;;;;;0.10;0.10;;;14.40;99.90;;;14.25;68.10;99615.25;4990893;28;107715;-47
2023/03/13 05:55:49;;;;;;;0.20;0.10;;;14.40;99.90;;;14.25;68.34;99620.56;4973093;28;100235;-44
2023/03/13 05:58:15;;;;;;;0.63;0.20;;;14.40;99.90;;;14.27;67.24;99616.00;4987180;28;125808;-45
2023/03/13 06:00:42;;;;;;;0.20;0.17;;;14.40;99.90;;;14.30;67.07;99626.38;4982203;28;97120;-43
2023/03/13 06:03:08;;;;;;;0.10;0.00;;;14.40;99.90;;;14.30;66.46;99639.66;4967278;28;96842;-44
2023/03/13 06:05:34;;;;;;;0.20;0.17;;;14.40;99.90;;;14.29;66.74;99640.59;4986678;28;96925;-45
2023/03/13 06:08:01;;;;;;;0.67;0.20;;;14.40;99.90;;;14.31;67.39;99625.44;4980487;28;102625;-48
2023/03/13 06:10:28;;;;;;;0.40;0.20;;;14.50;99.90;;;14.33;67.28;99633.31;4991795;28;97041;-46
2023/03/13 06:12:55;;;;;;;1.03;0.20;;;14.50;99.90;;;14.34;63.39;99624.41;4973050;28;97057;-47
2023/03/13 06:15:21;;;;;;;0.33;0.10;;;14.50;99.90;;;14.36;66.26;99643.72;4982997;28;97479;-44
2023/03/13 06:17:47;;;;;;;0.30;0.20;;;14.50;99.90;;;14.35;61.62;99648.16;4989463;28;97098;-45
2023/03/13 06:20:13;;;;;;;0.40;0.10;;;14.50;99.90;;;14.36;67.88;99649.88;4988868;28;97144;-44
2023/03/13 06:22:39;;;;;;;0.00;0.00;;;14.50;99.90;;;14.33;67.84;99655.38;4987478;28;97049;-49
2023/03/13 06:25:06;;;;;;;0.00;0.00;;;14.50;99.90;;;14.36;61.35;99655.16;4989998;28;97183;-47
2023/03/13 06:27:32;;;;;;;0.03;0.03;;;14.60;99.90;;;14.42;62.13;99654.75;4992267;28;102705;-48
2023/03/13 06:29:57;;;;;;;0.30;0.03;;;14.60;99.90;;;14.46;66.77;99656.25;4989676;28;96828;-45
2023/03/13 06:32:23;;;;;;;0.30;0.20;;;14.60;99.90;;;14.47;66.98;99652.69;4992009;28;97361;-48
2023/03/13 06:34:49;;;;;;;0.20;0.10;;;14.70;99.90;;;14.50;66.56;99656.94;4988391;28;97589;-46
2023/03/13 06:37:15;;;;;;;0.37;0.17;;;14.70;99.90;;;14.55;65.55;99660.97;4988184;28;99858;-47
2023/03/13 06:39:41;;;;;;;0.00;0.00;;;14.70;99.90;;;14.53;59.24;99657.56;4987652;28;97090;-44
2023/03/13 06:42:07;;;;;;;0.10;0.10;;;14.70;99.90;;;14.57;66.50;99653.75;4987604;28;96978;-45
2023/03/13 06:44:32;;;;;;;0.20;0.10;;;14.80;99.90;;;14.59;67.16;99662.44;4990372;28;98430;-45
2023/03/13 06:46:58;;;;;;;0.30;0.10;;;14.80;99.90;;;14.60;66.82;99663.28;4985692;28;98391;-46
2023/03/13 06:49:24;;;;;;;1.13;0.10;;;14.80;99.90;;;14.63;65.63;99662.25;4992515;28;99796;-46
2023/03/13 06:51:50;;;;;;;0.20;0.20;;;14.80;99.90;;;14.62;67.04;99672.03;4988165;28;102727;-54
2023/03/13 06:54:15;;;;;;;3.10;0.10;;;14.80;99.90;;;14.59;67.54;99681.03;4990063;28;100160;-45
2023/03/13 06:56:41;;;;;;;0.20;0.20;;;14.80;99.90;;;14.59;67.25;99683.69;4992393;28;97441;-44
2023/03/13 06:59:07;;;;;;;0.30;0.20;;;14.70;99.90;;;14.61;66.87;99680.94;4988648;28;96956;-45
2023/03/13 07:01:33;;;;;;;2.10;0.20;;;14.70;99.90;;;14.61;63.97;99674.75;4988849;28;97830;-44
2023/03/13 07:03:59;;;;;;;0.20;0.10;;;14.70;99.90;;;14.57;63.09;99674.97;4986875;28;97253;-45
2023/03/13 07:06:25;;;;;;;0.10;0.10;;;14.70;99.90;;;14.58;60.53;99684.63;4983413;28;97490;-48
2023/03/13 07:08:51;;;;;;;0.73;0.20;;;14.70;99.90;;;14.58;65.52;99681.97;4988285;28;97112;-47
2023/03/13 07:11:17;;;;;;;1.80;0.27;;;14.80;99.90;;;14.65;63.31;99692.19;4971753;28;97029;-45
2023/03/13 07:13:43;;;;;;;0.80;0.10;;;14.80;99.90;;;14.63;60.23;99678.19;4977257;28;98619;-43
2023/03/13 07:16:12;;;;;;;1.97;0.30;;;14.80;99.90;;;14.65;64.23;99676.28;4985364;28;97150;-44
2023/03/13 07:18:40;;;;;;;0.10;0.10;;;14.80;99.90;;;14.64;57.84;99674.56;4991034;28;97150;-44
2023/03/13 07:21:08;;;;;;;0.67;0.10;;;14.80;99.90;;;14.66;65.54;99677.97;4990700;28;97070;-44
2023/03/13 07:23:34;;;;;;;1.03;0.30;;;14.90;99.90;;;14.66;66.13;99688.59;4972472;28;99102;-43
2023/03/13 07:26:04;;;;;;;0.30;0.20;;;14.90;99.90;;;14.65;64.39;99690.41;4968413;28;100062;-47
2023/03/13 07:28:31;;;;;;;0.53;0.30;;;14.80;99.90;;;14.67;63.92;99692.94;4991585;28;98830;-44
2023/03/13 07:31:13;;;;;;;0.37;0.20;;;14.80;99.90;;;14.68;65.68;99691.97;4988177;28;97473;-47
2023/03/13 07:33:39;;;;;;;0.50;0.47;;;14.90;99.90;;;14.66;63.36;99688.59;4988473;28;97184;-44
2023/03/13 07:36:06;;;;;;;1.00;0.10;;;14.90;99.90;;;14.65;61.79;99689.53;4988098;28;97331;-43
2023/03/13 07:38:33;;;;;;;0.20;0.20;;;14.90;99.90;;;14.67;64.90;99680.50;4991785;28;100215;-45
2023/03/13 07:40:58;;;;;;;0.73;0.30;;;14.90;99.90;;;14.64;62.09;99666.63;4988351;28;96722;-43
2023/03/13 07:43:25;;;;;;;0.40;0.30;;;14.90;99.90;;;14.64;60.10;99663.97;4973242;28;96796;-45
2023/03/13 07:46:03;;;;;;;0.60;0.50;;;14.90;99.90;;;14.76;63.90;99660.47;4988388;28;97506;-43
2023/03/13 07:48:34;;;;;;;0.20;0.20;;;15.00;99.90;;;14.76;63.60;99655.16;4992887;28;97102;-45
2023/03/13 07:51:00;;;;;;;0.40;0.30;;;15.00;99.90;;;14.82;59.80;99657.38;4993749;28;96841;-46
2023/03/13 07:53:27;;;;;;;1.57;0.40;;;15.10;99.90;;;14.85;58.37;99651.84;4995601;28;97898;-49
2023/03/13 07:55:53;;;;;;;1.57;0.80;;;15.10;99.90;;;14.90;62.29;99639.13;4991160;28;97703;-43
2023/03/13 07:58:19;;;;;;;0.90;0.33;;;15.20;99.90;;;14.91;60.86;99646.16;4991206;28;97060;-44
2023/03/13 08:00:45;;;;;;;0.33;0.27;;;15.20;99.90;;;14.97;62.48;99640.38;4987128;28;98777;-44
2023/03/13 08:03:11;;;;;;;0.20;0.20;;;15.20;99.90;;;14.97;57.58;99634.22;4992920;28;97480;-44
2023/03/13 08:05:37;;;;;;;1.80;0.60;;;15.30;99.90;;;15.01;57.67;99631.25;4994183;28;97643;-42
2023/03/13 08:08:03;;;;;;;0.70;0.50;;;15.30;99.90;;;15.02;60.62;99638.25;4987963;28;97013;-44
2023/03/13 08:10:30;;;;;;;2.33;0.60;;;15.30;99.90;;;15.07;61.48;99636.16;4988924;28;97431;-43
2023/03/13 08:12:56;;;;;;;1.37;0.30;;;15.30;99.90;;;15.07;61.64;99636.16;4985824;28;106630;-47
2023/03/13 08:15:24;;;;;;;1.60;0.50;;;15.30;99.90;;;15.08;60.39;99647.63;4981724;28;117618;-46
2023/03/13 08:17:51;;;;;;;1.03;0.63;;;15.30;99.90;;;15.10;60.78;99632.41;4980016;28;96954;-48
2023/03/13 08:20:18;;;;;;;1.20;0.70;;;15.40;99.90;;;15.12;61.67;99626.03;4997768;28;97420;-44
2023/03/13 08:22:48;;;;;;;0.70;0.57;;;15.40;99.90;;;15.10;60.69;99629.75;4998255;28;97349;-46
2023/03/13 08:25:14;;;;;;;0.67;0.47;;;15.40;99.90;;;15.16;61.38;99624.00;4995720;28;97389;-44
2023/03/13 08:27:40;;;;;;;1.43;0.40;;;15.40;99.90;;;15.18;61.08;99628.25;4996104;28;97027;-45
2023/03/13 08:30:07;;;;;;;2.87;0.87;;;15.40;99.90;;;15.15;60.79;99623.16;4994484;28;102963;-44
2023/03/13 08:32:34;;;;;;;0.77;0.27;;;15.40;99.90;;;15.17;60.89;99631.84;4993200;28;97539;-44
2023/03/13 08:35:00;;;;;;;1.13;0.30;;;15.40;99.90;;;15.15;59.92;99628.47;4990975;28;97182;-43
2023/03/13 08:37:25;;;;;;;2.83;0.70;;;15.40;99.90;;;15.17;61.59;99621.25;4996719;28;97201;-45
2023/03/13 08:39:53;;;;;;;5.63;0.70;;;15.40;99.90;;;15.18;59.66;99622.09;4976284;28;98748;-46
2023/03/13 08:42:18;;;;;;;0.70;0.60;;;15.40;99.90;;;15.20;59.88;99627.31;4993605;28;97328;-45
2023/03/13 08:44:44;;;;;;;5.10;0.60;;;15.40;99.90;;;15.21;61.33;99631.66;4992440;28;104583;-47
2023/03/13 08:47:10;;;;;;;1.00;0.50;;;15.40;99.90;;;15.18;62.49;99638.88;4986866;28;97557;-44
2023/03/13 08:49:36;;;;;;;0.97;0.60;;;15.40;99.90;;;15.16;57.05;99630.16;4991938;28;96982;-47
2023/03/13 08:52:04;;;;;;;0.30;0.30;;;15.40;99.90;;;15.15;59.60;99628.47;4993488;28;107752;-48
2023/03/13 08:54:31;;;;;;;4.03;0.60;;;15.40;99.90;;;15.13;63.22;99634.84;4994914;28;97364;-49
2023/03/13 08:56:58;;;;;;;0.70;0.50;;;15.40;99.90;;;15.12;57.17;99634.00;4991839;28;97083;-44
2023/03/13 08:59:24;;;;;;;0.40;0.40;;;15.40;99.90;;;15.16;61.89;99622.19;4995252;28;97241;-46
2023/03/13 09:01:50;;;;;;;1.47;0.73;;;15.40;99.90;;;15.16;63.44;99635.47;4986684;28;99913;-51
2023/03/13 09:04:17;;;;;;;0.53;0.30;;;15.40;99.90;;;15.14;63.71;99637.41;4990349;28;97214;-46
2023/03/13 09:06:43;;;;;;;0.30;0.30;;;15.40;99.90;;;15.06;63.03;99631.78;4989609;28;97470;-44
2023/03/13 09:09:11;;;;;;;0.30;0.30;;;15.40;99.90;;;15.12;62.18;99620.72;4988584;28;96755;-48
2023/03/13 09:11:38;;;;;;;5.23;0.70;;;15.40;99.90;;;15.13;62.18;99624.22;4987838;28;98541;-47
2023/03/13 09:14:05;;;;;;;1.47;0.50;;;15.40;99.90;;;15.18;60.38;99625.59;4984771;28;97972;-47
2023/03/13 09:16:33;;;;;;;2.13;0.50;;;15.50;99.90;;;15.23;63.58;99613.81;4963183;28;98451;-47
2023/03/13 09:19:00;;;;;;;1.00;0.33;;;15.50;99.90;;;15.17;57.76;99605.31;4981746;28;99142;-45
2023/03/13 09:21:29;;;;;;;1.20;0.20;;;15.50;99.90;;;15.13;61.22;99618.91;4988534;28;97590;-48
2023/03/13 09:23:56;;;;;;;1.20;0.40;;;15.40;99.90;;;15.19;58.79;99607.88;4984551;28;97235;-49
2023/03/13 09:26:22;;;;;;;0.50;0.27;;;15.50;99.90;;;15.23;57.81;99613.81;4987894;28;97035;-50
2023/03/13 09:28:52;;;;;;;1.50;0.70;;;15.50;99.90;;;15.23;61.01;99608.50;4972540;28;97346;-46
2023/03/13 09:31:30;;;;;;;1.00;0.37;;;15.50;99.90;;;15.30;64.10;99612.41;4986406;28;101180;-49
2023/03/13 09:33:56;;;;;;;0.43;0.30;;;15.60;99.90;;;15.23;62.07;99597.88;4987460;28;98196;-46
2023/03/13 09:36:23;;;;;;;1.70;0.87;;;15.50;99.90;;;15.22;59.05;99590.88;4989572;28;97022;-46
2023/03/13 09:38:52;;;;;;;0.47;0.37;;;15.50;99.90;;;15.23;59.02;99593.41;4991006;28;97240;-47
2023/03/13 09:41:26;;;;;;;0.97;0.43;;;15.60;99.90;;;15.31;60.92;99600.81;4986286;28;100528;-47
2023/03/13 09:44:04;;;;;;;1.10;0.70;;;15.60;99.90;;;15.33;63.80;99598.88;4991196;28;97291;-47
2023/03/13 09:46:42;;;;;;;0.73;0.30;;;15.60;99.90;;;15.39;64.29;99588.69;4972028;28;97109;-48
2023/03/13 09:49:50;;;;;;;0.30;0.23;;;15.60;99.90;;;15.40;62.15;99592.19;4991295;28;97041;-44
2023/03/13 09:52:26;;;;;;;0.20;0.20;;;15.60;99.90;;;15.45;62.45;99569.63;4968580;28;100695;-47
2023/03/13 09:55:32;;;;;;;0.63;0.40;;;15.70;99.90;;;15.47;62.75;99586.31;4966919;28;99791;-45
2023/03/13 09:58:23;;;;;;;2.60;0.30;;;15.70;99.90;;;15.48;62.39;99576.56;4911123;28;97448;-44
2023/03/13 10:01:04;;;;;;;0.97;0.70;;;15.80;99.90;;;15.47;61.25;99574.81;4972789;28;97424;-46
2023/03/13 10:03:38;;;;;;;0.63;0.37;;;15.80;99.90;;;15.50;63.45;99584.41;4968420;28;100325;-48
2023/03/13 10:06:19;;;;;;;0.47;0.20;;;15.80;99.90;;;15.47;63.25;99588.97;4953501;28;98261;-44
2023/03/13 10:08:44;;;;;;;2.33;0.30;;;15.80;99.90;;;15.51;63.54;99578.13;4993096;28;97539;-43
2023/03/13 10:11:34;;;;;;;0.60;0.40;;;15.80;99.90;;;15.56;58.75;99573.31;4990098;28;97695;-44
2023/03/13 10:14:20;;;;;;;0.30;0.30;;;15.90;99.90;;;15.56;60.96;99579.47;4987435;28;97585;-43
2023/03/13 10:17:03;;;;;;;0.10;0.10;;;15.90;99.90;;;15.62;63.49;99568.44;4988611;28;97492;-46
2023/03/13 10:19:41;;;;;;;0.90;0.37;;;15.90;99.90;;;15.61;58.73;99557.91;4967364;28;97576;-48
2023/03/13 10:22:24;;;;;;;1.03;0.30;;;15.90;99.90;;;15.70;61.88;99549.25;4990038;28;97222;-47
2023/03/13 10:25:03;;;;;;;0.40;0.23;;;16.00;99.90;;;15.73;64.03;99563.16;4988859;28;102386;-54